TimeEST,TemperatureF,Dew PointF,Humidity,Sea Level PressureIn,VisibilityMPH,Wind Direction,Wind SpeedMPH,Gust SpeedMPH,PrecipitationIn,Events,Conditions,WindDirDegrees,DateUTC
12:53 AM,37.0,36.0,96,30.29,6.0,Calm,Calm,-,0.02,Rain,Light Rain,0,2013-01-15 05:53:00
1:40 AM,37.4,35.6,93,30.25,7.0,NNW,9.2,-,0.03,Rain,Light Rain,340,2013-01-15 06:40:00
1:53 AM,36.0,35.1,97,30.31,7.0,NNW,9.2,-,0.03,,Overcast,340,2013-01-15 06:53:00
2:18 AM,35.6,35.6,100,30.24,9.0,Calm,Calm,-,N/A,,Overcast,0,2013-01-15 07:18:00
2:53 AM,37.0,35.1,93,30.28,8.0,Calm,Calm,-,N/A,,Overcast,0,2013-01-15 07:53:00
3:53 AM,37.0,35.1,93,30.30,8.0,West,3.5,-,N/A,,Overcast,270,2013-01-15 08:53:00
4:15 AM,37.4,35.6,93,30.25,6.0,West,3.5,-,N/A,,Overcast,270,2013-01-15 09:15:00
4:53 AM,36.0,35.1,97,30.29,7.0,Calm,Calm,-,N/A,,Overcast,0,2013-01-15 09:53:00
5:53 AM,37.0,35.1,93,30.30,9.0,NW,3.5,-,N/A,,Overcast,320,2013-01-15 10:53:00
6:53 AM,37.0,35.1,93,30.31,8.0,Calm,Calm,-,N/A,,Overcast,0,2013-01-15 11:53:00
7:53 AM,37.0,35.1,93,30.35,8.0,North,3.5,-,N/A,,Overcast,350,2013-01-15 12:53:00
8:53 AM,37.0,34.0,89,30.37,8.0,North,6.9,-,N/A,,Overcast,350,2013-01-15 13:53:00
9:35 AM,37.4,33.8,87,30.33,8.0,North,4.6,-,N/A,,Overcast,350,2013-01-15 14:35:00
9:53 AM,37.9,34.0,86,30.39,8.0,North,4.6,-,N/A,,Overcast,360,2013-01-15 14:53:00
10:05 AM,39.2,33.8,81,30.34,9.0,North,5.8,-,N/A,,Overcast,360,2013-01-15 15:05:00
10:53 AM,37.9,32.0,79,30.39,10.0,North,9.2,-,N/A,,Overcast,360,2013-01-15 15:53:00
11:53 AM,37.9,30.0,73,30.34,10.0,North,5.8,-,N/A,,Overcast,360,2013-01-15 16:53:00
12:53 PM,37.9,28.9,70,30.33,10.0,North,8.1,-,N/A,,Overcast,360,2013-01-15 17:53:00
1:53 PM,39.0,30.0,70,30.28,10.0,North,5.8,-,N/A,,Overcast,10,2013-01-15 18:53:00
2:53 PM,37.9,30.0,73,30.29,10.0,North,9.2,-,N/A,,Overcast,360,2013-01-15 19:53:00
3:53 PM,37.0,28.9,73,30.30,10.0,North,5.8,-,N/A,,Overcast,10,2013-01-15 20:53:00
4:53 PM,37.0,28.9,73,30.28,10.0,North,6.9,-,N/A,,Overcast,360,2013-01-15 21:53:00
5:53 PM,37.0,28.9,73,30.30,10.0,North,6.9,-,N/A,,Overcast,10,2013-01-15 22:53:00
6:53 PM,37.0,28.0,70,30.30,10.0,NE,5.8,-,N/A,,Overcast,40,2013-01-15 23:53:00
7:53 PM,35.1,32.0,89,30.29,4.0,NE,5.8,-,0.01,Rain,Light Rain,40,2013-01-16 00:53:00
8:05 PM,35.6,32.0,87,30.24,5.0,NE,4.6,-,0.02,Rain,Light Rain,40,2013-01-16 01:05:00
8:24 PM,33.8,32.0,93,30.24,4.0,NE,6.9,-,0.05,Rain,Light Rain,50,2013-01-16 01:24:00
8:53 PM,34.0,32.0,92,30.28,4.0,ENE,5.8,-,0.08,Rain,Rain,60,2013-01-16 01:53:00
9:53 PM,33.1,30.9,92,30.26,4.0,ENE,6.9,-,0.09,Rain,Rain,60,2013-01-16 02:53:00
10:18 PM,33.8,30.2,87,30.19,4.0,ENE,6.9,-,0.05,Rain,Rain,70,2013-01-16 03:18:00
10:37 PM,33.8,32.0,93,30.18,3.0,NE,5.8,-,0.09,Rain,Rain,50,2013-01-16 03:37:00
10:53 PM,33.1,30.9,92,30.23,4.0,ENE,5.8,-,0.11,Rain,Light Rain,60,2013-01-16 03:53:00
11:06 PM,33.8,30.2,87,30.17,4.0,ENE,5.8,-,0.02,Rain,Light Freezing Rain,60,2013-01-16 04:06:00
11:53 PM,32.0,32.0,100,30.20,2.5,North,4.6,-,0.14,Rain,Light Freezing Rain,10,2013-01-16 04:53:00